sensor_id;sensor_type;location;lat;lon;timestamp;P1;durP1;ratioP1;P2;durP2;ratioP2
28862;SDS011;15994;51.796;13.006;2022-09-09T00:04:28;6.55;;;5.88;;
28862;SDS011;15994;51.796;13.006;2022-09-09T00:12:38;6.55;;;5.78;;
28862;SDS011;15994;51.796;13.006;2022-09-09T00:15:17;7.93;;;5.88;;
28862;SDS011;15994;51.796;13.006;2022-09-09T00:17:51;6.15;;;5.55;;
28862;SDS011;15994;51.796;13.006;2022-09-09T00:23:02;6.13;;;5.53;;
28862;SDS011;15994;51.796;13.006;2022-09-09T00:26:22;5.63;;;5.10;;
28862;SDS011;15994;51.796;13.006;2022-09-09T00:29:18;5.72;;;4.57;;
28862;SDS011;15994;51.796;13.006;2022-09-09T00:31:57;5.97;;;5.10;;
28862;SDS011;15994;51.796;13.006;2022-09-09T00:34:30;5.43;;;4.82;;
28862;SDS011;15994;51.796;13.006;2022-09-09T00:36:59;6.82;;;5.25;;
28862;SDS011;15994;51.796;13.006;2022-09-09T00:39:37;6.85;;;5.13;;
28862;SDS011;15994;51.796;13.006;2022-09-09T00:48:10;7.78;;;4.80;;
28862;SDS011;15994;51.796;13.006;2022-09-09T00:58:47;6.18;;;4.30;;
28862;SDS011;15994;51.796;13.006;2022-09-09T01:01:21;6.18;;;3.85;;
28862;SDS011;15994;51.796;13.006;2022-09-09T01:03:53;5.97;;;4.93;;
28862;SDS011;15994;51.796;13.006;2022-09-09T01:06:31;8.45;;;4.88;;
28862;SDS011;15994;51.796;13.006;2022-09-09T01:09:15;6.90;;;4.75;;
28862;SDS011;15994;51.796;13.006;2022-09-09T01:12:01;5.35;;;3.95;;
28862;SDS011;15994;51.796;13.006;2022-09-09T01:17:09;5.55;;;4.22;;
28862;SDS011;15994;51.796;13.006;2022-09-09T01:19:53;5.55;;;4.22;;
28862;SDS011;15994;51.796;13.006;2022-09-09T01:28:08;7.32;;;4.20;;
28862;SDS011;15994;51.796;13.006;2022-09-09T01:30:45;6.55;;;3.92;;
28862;SDS011;15994;51.796;13.006;2022-09-09T01:33:15;4.57;;;3.80;;
28862;SDS011;15994;51.796;13.006;2022-09-09T01:38:29;4.90;;;3.58;;
28862;SDS011;15994;51.796;13.006;2022-09-09T01:40:57;5.68;;;3.78;;
28862;SDS011;15994;51.796;13.006;2022-09-09T01:43:24;7.90;;;3.78;;
28862;SDS011;15994;51.796;13.006;2022-09-09T01:45:53;5.05;;;4.20;;
28862;SDS011;15994;51.796;13.006;2022-09-09T01:48:22;5.30;;;3.58;;
28862;SDS011;15994;51.796;13.006;2022-09-09T01:50:50;4.63;;;3.47;;
28862;SDS011;15994;51.796;13.006;2022-09-09T01:53:18;5.32;;;3.80;;
28862;SDS011;15994;51.796;13.006;2022-09-09T01:56:07;4.70;;;3.40;;
28862;SDS011;15994;51.796;13.006;2022-09-09T02:04:44;6.68;;;3.50;;
28862;SDS011;15994;51.796;13.006;2022-09-09T02:07:40;4.90;;;3.33;;
28862;SDS011;15994;51.796;13.006;2022-09-09T02:10:10;7.70;;;3.95;;
28862;SDS011;15994;51.796;13.006;2022-09-09T02:12:47;5.40;;;3.58;;
28862;SDS011;15994;51.796;13.006;2022-09-09T02:18:26;4.13;;;3.03;;
28862;SDS011;15994;51.796;13.006;2022-09-09T02:20:56;9.02;;;2.95;;
28862;SDS011;15994;51.796;13.006;2022-09-09T02:23:24;5.68;;;3.28;;
28862;SDS011;15994;51.796;13.006;2022-09-09T02:25:52;5.38;;;3.40;;
28862;SDS011;15994;51.796;13.006;2022-09-09T02:28:21;5.57;;;3.40;;
28862;SDS011;15994;51.796;13.006;2022-09-09T02:30:52;5.30;;;3.40;;
28862;SDS011;15994;51.796;13.006;2022-09-09T02:33:21;6.45;;;3.10;;
28862;SDS011;15994;51.796;13.006;2022-09-09T02:35:51;6.07;;;3.20;;
28862;SDS011;15994;51.796;13.006;2022-09-09T02:38:18;5.57;;;3.17;;
28862;SDS011;15994;51.796;13.006;2022-09-09T02:40:47;5.57;;;3.55;;
28862;SDS011;15994;51.796;13.006;2022-09-09T02:43:14;8.57;;;3.08;;
28862;SDS011;15994;51.796;13.006;2022-09-09T02:45:45;4.63;;;3.40;;
28862;SDS011;15994;51.796;13.006;2022-09-09T02:48:34;6.28;;;2.92;;
28862;SDS011;15994;51.796;13.006;2022-09-09T02:54:17;5.72;;;3.13;;
28862;SDS011;15994;51.796;13.006;2022-09-09T02:56:55;6.70;;;3.58;;
28862;SDS011;15994;51.796;13.006;2022-09-09T02:59:36;5.30;;;3.03;;
28862;SDS011;15994;51.796;13.006;2022-09-09T03:02:03;4.80;;;3.05;;
28862;SDS011;15994;51.796;13.006;2022-09-09T03:04:30;5.53;;;3.10;;
28862;SDS011;15994;51.796;13.006;2022-09-09T03:06:58;5.32;;;3.22;;
28862;SDS011;15994;51.796;13.006;2022-09-09T03:09:25;4.57;;;3.00;;
28862;SDS011;15994;51.796;13.006;2022-09-09T03:11:51;4.85;;;3.05;;
28862;SDS011;15994;51.796;13.006;2022-09-09T03:14:19;4.90;;;3.10;;
28862;SDS011;15994;51.796;13.006;2022-09-09T03:16:49;10.32;;;3.53;;
28862;SDS011;15994;51.796;13.006;2022-09-09T03:19:16;5.75;;;3.42;;
28862;SDS011;15994;51.796;13.006;2022-09-09T03:21:43;6.18;;;3.60;;
28862;SDS011;15994;51.796;13.006;2022-09-09T03:24:10;4.47;;;3.30;;
28862;SDS011;15994;51.796;13.006;2022-09-09T03:26:37;8.00;;;3.97;;
28862;SDS011;15994;51.796;13.006;2022-09-09T03:29:05;5.18;;;3.55;;
28862;SDS011;15994;51.796;13.006;2022-09-09T03:31:35;7.53;;;3.58;;
28862;SDS011;15994;51.796;13.006;2022-09-09T03:34:02;7.32;;;3.35;;
28862;SDS011;15994;51.796;13.006;2022-09-09T03:36:28;6.00;;;3.45;;
28862;SDS011;15994;51.796;13.006;2022-09-09T03:38:55;6.25;;;3.53;;
28862;SDS011;15994;51.796;13.006;2022-09-09T03:41:23;7.05;;;3.45;;
28862;SDS011;15994;51.796;13.006;2022-09-09T03:43:52;6.80;;;4.18;;
28862;SDS011;15994;51.796;13.006;2022-09-09T03:46:20;6.00;;;4.13;;
28862;SDS011;15994;51.796;13.006;2022-09-09T03:48:47;7.35;;;4.07;;
28862;SDS011;15994;51.796;13.006;2022-09-09T03:51:14;7.50;;;4.53;;
28862;SDS011;15994;51.796;13.006;2022-09-09T03:53:41;7.80;;;4.00;;
28862;SDS011;15994;51.796;13.006;2022-09-09T03:56:08;6.03;;;3.50;;
28862;SDS011;15994;51.796;13.006;2022-09-09T03:58:35;6.90;;;3.70;;
28862;SDS011;15994;51.796;13.006;2022-09-09T04:01:04;6.03;;;3.58;;
28862;SDS011;15994;51.796;13.006;2022-09-09T04:03:33;5.85;;;3.33;;
28862;SDS011;15994;51.796;13.006;2022-09-09T04:06:03;5.97;;;3.78;;
28862;SDS011;15994;51.796;13.006;2022-09-09T04:08:31;6.35;;;3.55;;
28862;SDS011;15994;51.796;13.006;2022-09-09T04:10:57;6.32;;;3.78;;
28862;SDS011;15994;51.796;13.006;2022-09-09T04:13:26;7.28;;;3.83;;
28862;SDS011;15994;51.796;13.006;2022-09-09T04:15:54;6.38;;;3.97;;
28862;SDS011;15994;51.796;13.006;2022-09-09T04:18:22;7.68;;;3.65;;
28862;SDS011;15994;51.796;13.006;2022-09-09T04:20:49;7.40;;;4.03;;
28862;SDS011;15994;51.796;13.006;2022-09-09T04:23:16;6.15;;;3.78;;
28862;SDS011;15994;51.796;13.006;2022-09-09T04:25:48;5.65;;;3.78;;
28862;SDS011;15994;51.796;13.006;2022-09-09T04:28:16;7.57;;;3.78;;
28862;SDS011;15994;51.796;13.006;2022-09-09T04:30:44;7.60;;;3.60;;
28862;SDS011;15994;51.796;13.006;2022-09-09T04:33:11;7.32;;;3.90;;
28862;SDS011;15994;51.796;13.006;2022-09-09T04:35:39;7.85;;;3.70;;
28862;SDS011;15994;51.796;13.006;2022-09-09T04:38:09;4.40;;;3.17;;
28862;SDS011;15994;51.796;13.006;2022-09-09T04:40:36;6.75;;;3.47;;
28862;SDS011;15994;51.796;13.006;2022-09-09T04:43:08;6.40;;;3.65;;
28862;SDS011;15994;51.796;13.006;2022-09-09T04:45:35;5.68;;;3.65;;
28862;SDS011;15994;51.796;13.006;2022-09-09T04:48:02;6.43;;;3.47;;
28862;SDS011;15994;51.796;13.006;2022-09-09T04:50:28;8.07;;;3.80;;
28862;SDS011;15994;51.796;13.006;2022-09-09T04:52:55;6.97;;;3.45;;
28862;SDS011;15994;51.796;13.006;2022-09-09T04:55:22;5.60;;;3.50;;
28862;SDS011;15994;51.796;13.006;2022-09-09T04:57:48;4.90;;;3.20;;
28862;SDS011;15994;51.796;13.006;2022-09-09T05:00:15;6.15;;;3.55;;
28862;SDS011;15994;51.796;13.006;2022-09-09T05:02:42;5.65;;;3.08;;
28862;SDS011;15994;51.796;13.006;2022-09-09T05:05:08;6.78;;;3.42;;
28862;SDS011;15994;51.796;13.006;2022-09-09T05:07:36;6.05;;;3.38;;
28862;SDS011;15994;51.796;13.006;2022-09-09T05:10:03;5.70;;;3.58;;
28862;SDS011;15994;51.796;13.006;2022-09-09T05:12:31;6.38;;;3.45;;
28862;SDS011;15994;51.796;13.006;2022-09-09T05:14:57;8.88;;;4.00;;
28862;SDS011;15994;51.796;13.006;2022-09-09T05:17:24;10.82;;;4.88;;
28862;SDS011;15994;51.796;13.006;2022-09-09T05:19:51;7.40;;;4.20;;
28862;SDS011;15994;51.796;13.006;2022-09-09T05:22:18;5.90;;;3.90;;
28862;SDS011;15994;51.796;13.006;2022-09-09T05:24:46;6.70;;;3.72;;
28862;SDS011;15994;51.796;13.006;2022-09-09T05:27:16;7.32;;;4.20;;
28862;SDS011;15994;51.796;13.006;2022-09-09T05:29:44;8.95;;;4.30;;
28862;SDS011;15994;51.796;13.006;2022-09-09T05:32:11;7.05;;;4.53;;
28862;SDS011;15994;51.796;13.006;2022-09-09T05:34:38;8.45;;;4.32;;
28862;SDS011;15994;51.796;13.006;2022-09-09T05:37:05;11.50;;;4.80;;
28862;SDS011;15994;51.796;13.006;2022-09-09T05:39:32;4.50;;;3.67;;
28862;SDS011;15994;51.796;13.006;2022-09-09T05:42:01;7.47;;;4.22;;
28862;SDS011;15994;51.796;13.006;2022-09-09T05:44:27;7.03;;;4.05;;
28862;SDS011;15994;51.796;13.006;2022-09-09T05:46:54;6.95;;;4.50;;
28862;SDS011;15994;51.796;13.006;2022-09-09T05:49:21;7.30;;;4.85;;
28862;SDS011;15994;51.796;13.006;2022-09-09T05:51:48;6.50;;;4.45;;
28862;SDS011;15994;51.796;13.006;2022-09-09T05:54:15;7.85;;;3.92;;
28862;SDS011;15994;51.796;13.006;2022-09-09T05:56:42;5.45;;;4.32;;
28862;SDS011;15994;51.796;13.006;2022-09-09T05:59:09;9.88;;;4.40;;
28862;SDS011;15994;51.796;13.006;2022-09-09T06:01:36;8.32;;;5.00;;
28862;SDS011;15994;51.796;13.006;2022-09-09T06:04:05;7.78;;;4.35;;
28862;SDS011;15994;51.796;13.006;2022-09-09T06:06:33;9.20;;;4.13;;
28862;SDS011;15994;51.796;13.006;2022-09-09T06:09:02;5.68;;;3.92;;
28862;SDS011;15994;51.796;13.006;2022-09-09T06:11:31;6.72;;;4.40;;
28862;SDS011;15994;51.796;13.006;2022-09-09T06:14:01;6.18;;;3.80;;
28862;SDS011;15994;51.796;13.006;2022-09-09T06:16:28;8.32;;;4.28;;
28862;SDS011;15994;51.796;13.006;2022-09-09T06:18:57;7.90;;;3.83;;
28862;SDS011;15994;51.796;13.006;2022-09-09T06:21:26;5.75;;;3.83;;
28862;SDS011;15994;51.796;13.006;2022-09-09T06:23:55;10.13;;;3.55;;
28862;SDS011;15994;51.796;13.006;2022-09-09T06:26:26;4.20;;;3.05;;
28862;SDS011;15994;51.796;13.006;2022-09-09T06:28:55;5.07;;;3.40;;
28862;SDS011;15994;51.796;13.006;2022-09-09T06:31:24;5.13;;;2.88;;
28862;SDS011;15994;51.796;13.006;2022-09-09T06:33:55;5.97;;;3.40;;
28862;SDS011;15994;51.796;13.006;2022-09-09T06:36:23;7.05;;;3.38;;
28862;SDS011;15994;51.796;13.006;2022-09-09T06:38:52;6.32;;;2.90;;
28862;SDS011;15994;51.796;13.006;2022-09-09T06:41:20;5.40;;;2.88;;
28862;SDS011;15994;51.796;13.006;2022-09-09T06:43:48;6.63;;;3.13;;
28862;SDS011;15994;51.796;13.006;2022-09-09T06:46:18;6.18;;;2.95;;
28862;SDS011;15994;51.796;13.006;2022-09-09T06:48:48;5.93;;;3.08;;
28862;SDS011;15994;51.796;13.006;2022-09-09T06:51:22;4.65;;;3.15;;
28862;SDS011;15994;51.796;13.006;2022-09-09T06:53:50;5.10;;;2.60;;
28862;SDS011;15994;51.796;13.006;2022-09-09T06:58:54;7.65;;;2.75;;
28862;SDS011;15994;51.796;13.006;2022-09-09T07:01:22;5.20;;;2.42;;
28862;SDS011;15994;51.796;13.006;2022-09-09T07:03:51;3.78;;;2.55;;
28862;SDS011;15994;51.796;13.006;2022-09-09T07:06:23;6.47;;;2.42;;
28862;SDS011;15994;51.796;13.006;2022-09-09T07:08:54;8.10;;;2.70;;
28862;SDS011;15994;51.796;13.006;2022-09-09T07:11:24;4.50;;;1.98;;
28862;SDS011;15994;51.796;13.006;2022-09-09T07:13:56;6.65;;;2.60;;
28862;SDS011;15994;51.796;13.006;2022-09-09T07:16:24;7.18;;;2.33;;
28862;SDS011;15994;51.796;13.006;2022-09-09T07:18:52;5.50;;;2.10;;
28862;SDS011;15994;51.796;13.006;2022-09-09T07:21:22;6.80;;;1.83;;
28862;SDS011;15994;51.796;13.006;2022-09-09T07:23:51;4.18;;;1.80;;
28862;SDS011;15994;51.796;13.006;2022-09-09T07:26:18;5.03;;;1.52;;
28862;SDS011;15994;51.796;13.006;2022-09-09T07:28:47;3.65;;;1.70;;
28862;SDS011;15994;51.796;13.006;2022-09-09T07:31:15;4.25;;;1.75;;
28862;SDS011;15994;51.796;13.006;2022-09-09T07:33:42;4.95;;;1.50;;
28862;SDS011;15994;51.796;13.006;2022-09-09T07:36:12;6.45;;;1.58;;
28862;SDS011;15994;51.796;13.006;2022-09-09T07:38:47;5.53;;;1.40;;
28862;SDS011;15994;51.796;13.006;2022-09-09T07:41:17;4.82;;;1.48;;
28862;SDS011;15994;51.796;13.006;2022-09-09T07:43:50;5.70;;;1.60;;
28862;SDS011;15994;51.796;13.006;2022-09-09T07:46:19;5.20;;;1.65;;
28862;SDS011;15994;51.796;13.006;2022-09-09T07:48:46;4.03;;;1.50;;
28862;SDS011;15994;51.796;13.006;2022-09-09T07:51:16;5.40;;;1.48;;
28862;SDS011;15994;51.796;13.006;2022-09-09T07:53:47;4.63;;;1.30;;
28862;SDS011;15994;51.796;13.006;2022-09-09T07:56:18;5.32;;;1.40;;
28862;SDS011;15994;51.796;13.006;2022-09-09T07:58:48;3.15;;;1.20;;
28862;SDS011;15994;51.796;13.006;2022-09-09T08:01:17;4.05;;;1.48;;
28862;SDS011;15994;51.796;13.006;2022-09-09T08:03:51;2.88;;;0.90;;
28862;SDS011;15994;51.796;13.006;2022-09-09T08:06:20;4.40;;;0.90;;
28862;SDS011;15994;51.796;13.006;2022-09-09T08:08:49;4.60;;;0.98;;
28862;SDS011;15994;51.796;13.006;2022-09-09T08:11:17;3.65;;;0.98;;
28862;SDS011;15994;51.796;13.006;2022-09-09T08:13:44;6.15;;;1.08;;
28862;SDS011;15994;51.796;13.006;2022-09-09T08:16:15;6.60;;;1.00;;
28862;SDS011;15994;51.796;13.006;2022-09-09T08:18:43;4.00;;;0.80;;
28862;SDS011;15994;51.796;13.006;2022-09-09T08:21:12;3.72;;;0.93;;
28862;SDS011;15994;51.796;13.006;2022-09-09T08:23:44;4.43;;;1.00;;
28862;SDS011;15994;51.796;13.006;2022-09-09T08:26:15;5.70;;;0.90;;
28862;SDS011;15994;51.796;13.006;2022-09-09T08:28:46;4.90;;;1.00;;
28862;SDS011;15994;51.796;13.006;2022-09-09T08:31:15;3.22;;;0.90;;
28862;SDS011;15994;51.796;13.006;2022-09-09T08:33:43;3.97;;;0.90;;
28862;SDS011;15994;51.796;13.006;2022-09-09T08:36:13;4.78;;;1.17;;
28862;SDS011;15994;51.796;13.006;2022-09-09T08:38:42;2.63;;;0.70;;
28862;SDS011;15994;51.796;13.006;2022-09-09T08:43:49;3.90;;;0.82;;
28862;SDS011;15994;51.796;13.006;2022-09-09T08:46:33;4.43;;;1.10;;
28862;SDS011;15994;51.796;13.006;2022-09-09T08:51:56;5.97;;;0.90;;
28862;SDS011;15994;51.796;13.006;2022-09-09T08:54:23;3.00;;;0.77;;
28862;SDS011;15994;51.796;13.006;2022-09-09T08:56:55;4.88;;;0.90;;
28862;SDS011;15994;51.796;13.006;2022-09-09T08:59:22;3.25;;;0.90;;
28862;SDS011;15994;51.796;13.006;2022-09-09T09:01:57;4.30;;;0.95;;
28862;SDS011;15994;51.796;13.006;2022-09-09T09:10:42;2.13;;;0.70;;
28862;SDS011;15994;51.796;13.006;2022-09-09T09:13:14;4.35;;;0.65;;
28862;SDS011;15994;51.796;13.006;2022-09-09T09:18:48;3.83;;;0.82;;
28862;SDS011;15994;51.796;13.006;2022-09-09T09:21:17;3.20;;;0.82;;
28862;SDS011;15994;51.796;13.006;2022-09-09T09:23:55;2.42;;;0.88;;
28862;SDS011;15994;51.796;13.006;2022-09-09T09:26:23;5.25;;;1.05;;
28862;SDS011;15994;51.796;13.006;2022-09-09T09:31:27;6.10;;;1.10;;
28862;SDS011;15994;51.796;13.006;2022-09-09T09:33:54;4.80;;;0.98;;
28862;SDS011;15994;51.796;13.006;2022-09-09T09:36:39;5.43;;;1.15;;
28862;SDS011;15994;51.796;13.006;2022-09-09T09:39:09;4.03;;;0.90;;
28862;SDS011;15994;51.796;13.006;2022-09-09T09:41:38;5.72;;;1.00;;
28862;SDS011;15994;51.796;13.006;2022-09-09T09:44:22;7.70;;;0.80;;
28862;SDS011;15994;51.796;13.006;2022-09-09T09:47:08;2.33;;;0.70;;
28862;SDS011;15994;51.796;13.006;2022-09-09T09:49:54;3.25;;;0.70;;
28862;SDS011;15994;51.796;13.006;2022-09-09T09:52:25;2.72;;;0.90;;
28862;SDS011;15994;51.796;13.006;2022-09-09T09:54:53;3.00;;;0.80;;
28862;SDS011;15994;51.796;13.006;2022-09-09T09:57:25;3.65;;;0.52;;
28862;SDS011;15994;51.796;13.006;2022-09-09T10:00:01;3.80;;;0.70;;
28862;SDS011;15994;51.796;13.006;2022-09-09T10:02:39;2.65;;;0.95;;
28862;SDS011;15994;51.796;13.006;2022-09-09T10:08:01;5.53;;;0.98;;
28862;SDS011;15994;51.796;13.006;2022-09-09T10:13:18;3.25;;;0.90;;
28862;SDS011;15994;51.796;13.006;2022-09-09T10:18:38;3.20;;;0.90;;
28862;SDS011;15994;51.796;13.006;2022-09-09T10:34:57;3.08;;;0.82;;
28862;SDS011;15994;51.796;13.006;2022-09-09T10:40:33;2.67;;;0.77;;
28862;SDS011;15994;51.796;13.006;2022-09-09T10:45:59;4.65;;;1.00;;
28862;SDS011;15994;51.796;13.006;2022-09-09T10:48:49;4.43;;;0.80;;
28862;SDS011;15994;51.796;13.006;2022-09-09T10:56:44;3.45;;;0.80;;
28862;SDS011;15994;51.796;13.006;2022-09-09T10:59:19;2.58;;;0.80;;
28862;SDS011;15994;51.796;13.006;2022-09-09T11:01:57;4.47;;;0.90;;
28862;SDS011;15994;51.796;13.006;2022-09-09T11:04:35;3.67;;;0.90;;
28862;SDS011;15994;51.796;13.006;2022-09-09T11:07:08;2.72;;;0.65;;
28862;SDS011;15994;51.796;13.006;2022-09-09T11:09:41;3.58;;;0.73;;
28862;SDS011;15994;51.796;13.006;2022-09-09T11:12:17;3.70;;;0.80;;
28862;SDS011;15994;51.796;13.006;2022-09-09T11:14:45;2.70;;;0.50;;
28862;SDS011;15994;51.796;13.006;2022-09-09T11:17:19;4.75;;;0.77;;
28862;SDS011;15994;51.796;13.006;2022-09-09T11:19:56;3.63;;;0.85;;
28862;SDS011;15994;51.796;13.006;2022-09-09T11:27:41;2.88;;;0.77;;
28862;SDS011;15994;51.796;13.006;2022-09-09T11:30:46;4.57;;;0.80;;
28862;SDS011;15994;51.796;13.006;2022-09-09T11:36:05;2.55;;;0.50;;
28862;SDS011;15994;51.796;13.006;2022-09-09T11:38:52;2.55;;;0.55;;
28862;SDS011;15994;51.796;13.006;2022-09-09T11:41:32;2.22;;;0.57;;
28862;SDS011;15994;51.796;13.006;2022-09-09T11:44:15;3.65;;;0.68;;
28862;SDS011;15994;51.796;13.006;2022-09-09T11:46:49;2.70;;;0.60;;
28862;SDS011;15994;51.796;13.006;2022-09-09T11:52:24;5.50;;;0.70;;
28862;SDS011;15994;51.796;13.006;2022-09-09T11:55:08;2.80;;;0.50;;
28862;SDS011;15994;51.796;13.006;2022-09-09T11:58:05;4.30;;;0.80;;
28862;SDS011;15994;51.796;13.006;2022-09-09T12:00:41;2.03;;;0.55;;
28862;SDS011;15994;51.796;13.006;2022-09-09T12:03:32;5.63;;;1.15;;
28862;SDS011;15994;51.796;13.006;2022-09-09T12:08:43;2.45;;;0.60;;
28862;SDS011;15994;51.796;13.006;2022-09-09T12:11:23;3.15;;;0.80;;
28862;SDS011;15994;51.796;13.006;2022-09-09T12:13:56;2.92;;;0.60;;
28862;SDS011;15994;51.796;13.006;2022-09-09T12:16:28;3.47;;;0.70;;
28862;SDS011;15994;51.796;13.006;2022-09-09T12:21:34;2.80;;;0.55;;
28862;SDS011;15994;51.796;13.006;2022-09-09T12:24:09;3.17;;;0.70;;
28862;SDS011;15994;51.796;13.006;2022-09-09T12:26:43;2.17;;;0.68;;
28862;SDS011;15994;51.796;13.006;2022-09-09T12:39:58;5.43;;;0.70;;
28862;SDS011;15994;51.796;13.006;2022-09-09T12:42:27;2.75;;;0.70;;
28862;SDS011;15994;51.796;13.006;2022-09-09T12:44:55;3.63;;;0.80;;
28862;SDS011;15994;51.796;13.006;2022-09-09T12:47:26;5.35;;;0.75;;
28862;SDS011;15994;51.796;13.006;2022-09-09T12:50:02;7.13;;;1.00;;
28862;SDS011;15994;51.796;13.006;2022-09-09T12:52:34;4.97;;;0.60;;
28862;SDS011;15994;51.796;13.006;2022-09-09T12:55:04;3.70;;;1.00;;
28862;SDS011;15994;51.796;13.006;2022-09-09T12:57:34;2.95;;;0.75;;
28862;SDS011;15994;51.796;13.006;2022-09-09T13:00:05;5.45;;;0.60;;
28862;SDS011;15994;51.796;13.006;2022-09-09T13:02:35;3.50;;;0.73;;
28862;SDS011;15994;51.796;13.006;2022-09-09T13:05:14;5.90;;;0.80;;
28862;SDS011;15994;51.796;13.006;2022-09-09T13:07:43;3.83;;;0.80;;
28862;SDS011;15994;51.796;13.006;2022-09-09T13:10:10;8.52;;;1.75;;
28862;SDS011;15994;51.796;13.006;2022-09-09T13:12:38;5.30;;;0.85;;
28862;SDS011;15994;51.796;13.006;2022-09-09T13:15:09;3.00;;;0.77;;
28862;SDS011;15994;51.796;13.006;2022-09-09T13:17:49;3.45;;;0.65;;
28862;SDS011;15994;51.796;13.006;2022-09-09T13:20:23;4.85;;;1.02;;
28862;SDS011;15994;51.796;13.006;2022-09-09T13:22:50;4.20;;;0.80;;
28862;SDS011;15994;51.796;13.006;2022-09-09T13:25:21;4.30;;;0.70;;
28862;SDS011;15994;51.796;13.006;2022-09-09T13:30:33;3.78;;;0.90;;
28862;SDS011;15994;51.796;13.006;2022-09-09T13:35:54;4.47;;;1.10;;
28862;SDS011;15994;51.796;13.006;2022-09-09T13:38:29;2.55;;;0.65;;
28862;SDS011;15994;51.796;13.006;2022-09-09T13:41:00;5.07;;;0.77;;
28862;SDS011;15994;51.796;13.006;2022-09-09T13:43:30;3.78;;;0.73;;
28862;SDS011;15994;51.796;13.006;2022-09-09T13:46:02;2.67;;;0.57;;
28862;SDS011;15994;51.796;13.006;2022-09-09T13:48:31;3.33;;;0.90;;
28862;SDS011;15994;51.796;13.006;2022-09-09T13:51:02;4.95;;;0.90;;
28862;SDS011;15994;51.796;13.006;2022-09-09T13:53:30;3.92;;;0.70;;
28862;SDS011;15994;51.796;13.006;2022-09-09T13:55:58;2.70;;;0.60;;
28862;SDS011;15994;51.796;13.006;2022-09-09T13:58:26;3.22;;;0.60;;
28862;SDS011;15994;51.796;13.006;2022-09-09T14:00:52;12.45;;;1.40;;
28862;SDS011;15994;51.796;13.006;2022-09-09T14:03:19;3.45;;;0.70;;
28862;SDS011;15994;51.796;13.006;2022-09-09T14:05:46;4.97;;;0.65;;
28862;SDS011;15994;51.796;13.006;2022-09-09T14:08:15;4.63;;;1.10;;
28862;SDS011;15994;51.796;13.006;2022-09-09T14:10:47;3.90;;;0.82;;
28862;SDS011;15994;51.796;13.006;2022-09-09T14:13:14;3.50;;;0.68;;
28862;SDS011;15994;51.796;13.006;2022-09-09T14:15:40;2.38;;;0.70;;
28862;SDS011;15994;51.796;13.006;2022-09-09T14:18:09;3.95;;;0.95;;
28862;SDS011;15994;51.796;13.006;2022-09-09T14:20:38;3.25;;;0.68;;
28862;SDS011;15994;51.796;13.006;2022-09-09T14:23:05;2.70;;;0.77;;
28862;SDS011;15994;51.796;13.006;2022-09-09T14:25:31;2.22;;;0.60;;
28862;SDS011;15994;51.796;13.006;2022-09-09T14:27:58;3.05;;;0.68;;
28862;SDS011;15994;51.796;13.006;2022-09-09T14:30:24;3.40;;;0.70;;
28862;SDS011;15994;51.796;13.006;2022-09-09T14:32:51;3.90;;;0.73;;
28862;SDS011;15994;51.796;13.006;2022-09-09T14:35:17;3.22;;;1.15;;
28862;SDS011;15994;51.796;13.006;2022-09-09T14:37:44;4.88;;;0.80;;
28862;SDS011;15994;51.796;13.006;2022-09-09T14:40:11;2.85;;;0.60;;
28862;SDS011;15994;51.796;13.006;2022-09-09T14:42:39;6.60;;;1.10;;
28862;SDS011;15994;51.796;13.006;2022-09-09T14:45:06;3.65;;;0.70;;
28862;SDS011;15994;51.796;13.006;2022-09-09T14:47:33;2.72;;;0.70;;
28862;SDS011;15994;51.796;13.006;2022-09-09T14:50:00;3.05;;;0.73;;
28862;SDS011;15994;51.796;13.006;2022-09-09T14:52:29;3.28;;;0.60;;
28862;SDS011;15994;51.796;13.006;2022-09-09T14:54:56;3.33;;;0.80;;
28862;SDS011;15994;51.796;13.006;2022-09-09T14:57:23;3.58;;;0.63;;
28862;SDS011;15994;51.796;13.006;2022-09-09T14:59:49;3.67;;;0.75;;
28862;SDS011;15994;51.796;13.006;2022-09-09T15:02:16;2.38;;;0.60;;
28862;SDS011;15994;51.796;13.006;2022-09-09T15:04:42;4.68;;;0.85;;
28862;SDS011;15994;51.796;13.006;2022-09-09T15:07:09;3.92;;;0.80;;
28862;SDS011;15994;51.796;13.006;2022-09-09T15:09:36;3.53;;;0.70;;
28862;SDS011;15994;51.796;13.006;2022-09-09T15:12:03;3.13;;;0.77;;
28862;SDS011;15994;51.796;13.006;2022-09-09T15:14:30;4.15;;;0.85;;
28862;SDS011;15994;51.796;13.006;2022-09-09T15:16:57;5.80;;;0.60;;
28862;SDS011;15994;51.796;13.006;2022-09-09T15:19:24;3.75;;;0.77;;
28862;SDS011;15994;51.796;13.006;2022-09-09T15:21:50;2.85;;;0.65;;
28862;SDS011;15994;51.796;13.006;2022-09-09T15:24:17;3.97;;;1.00;;
28862;SDS011;15994;51.796;13.006;2022-09-09T15:26:44;2.67;;;0.73;;
28862;SDS011;15994;51.796;13.006;2022-09-09T15:29:11;3.42;;;0.75;;
28862;SDS011;15994;51.796;13.006;2022-09-09T15:31:38;4.50;;;1.20;;
28862;SDS011;15994;51.796;13.006;2022-09-09T15:34:05;2.55;;;0.60;;
28862;SDS011;15994;51.796;13.006;2022-09-09T15:36:35;4.07;;;0.70;;
28862;SDS011;15994;51.796;13.006;2022-09-09T15:39:06;3.88;;;0.90;;
28862;SDS011;15994;51.796;13.006;2022-09-09T15:41:34;6.00;;;0.80;;
28862;SDS011;15994;51.796;13.006;2022-09-09T15:44:01;3.47;;;0.68;;
28862;SDS011;15994;51.796;13.006;2022-09-09T15:46:38;5.18;;;0.90;;
28862;SDS011;15994;51.796;13.006;2022-09-09T15:49:14;2.78;;;0.73;;
28862;SDS011;15994;51.796;13.006;2022-09-09T15:51:47;8.68;;;0.88;;
28862;SDS011;15994;51.796;13.006;2022-09-09T15:54:17;4.25;;;1.00;;
28862;SDS011;15994;51.796;13.006;2022-09-09T15:56:45;4.07;;;1.10;;
28862;SDS011;15994;51.796;13.006;2022-09-09T15:59:15;5.57;;;1.10;;
28862;SDS011;15994;51.796;13.006;2022-09-09T16:01:43;10.95;;;1.70;;
28862;SDS011;15994;51.796;13.006;2022-09-09T16:04:10;4.13;;;1.10;;
28862;SDS011;15994;51.796;13.006;2022-09-09T16:06:37;6.93;;;1.23;;
28862;SDS011;15994;51.796;13.006;2022-09-09T16:09:04;5.82;;;1.27;;
28862;SDS011;15994;51.796;13.006;2022-09-09T16:11:33;6.80;;;1.45;;
28862;SDS011;15994;51.796;13.006;2022-09-09T16:14:02;5.68;;;1.15;;
28862;SDS011;15994;51.796;13.006;2022-09-09T16:16:30;7.90;;;1.02;;
28862;SDS011;15994;51.796;13.006;2022-09-09T16:18:58;3.92;;;0.90;;
28862;SDS011;15994;51.796;13.006;2022-09-09T16:21:30;4.68;;;1.20;;
28862;SDS011;15994;51.796;13.006;2022-09-09T16:24:00;2.55;;;0.90;;
28862;SDS011;15994;51.796;13.006;2022-09-09T16:26:29;4.18;;;1.00;;
28862;SDS011;15994;51.796;13.006;2022-09-09T16:28:57;5.32;;;0.85;;
28862;SDS011;15994;51.796;13.006;2022-09-09T16:31:25;7.72;;;1.02;;
28862;SDS011;15994;51.796;13.006;2022-09-09T16:33:53;3.92;;;0.80;;
28862;SDS011;15994;51.796;13.006;2022-09-09T16:36:21;3.47;;;0.75;;
28862;SDS011;15994;51.796;13.006;2022-09-09T16:38:53;5.82;;;1.20;;
28862;SDS011;15994;51.796;13.006;2022-09-09T16:41:24;4.28;;;1.13;;
28862;SDS011;15994;51.796;13.006;2022-09-09T16:43:56;3.13;;;0.80;;
28862;SDS011;15994;51.796;13.006;2022-09-09T16:46:24;5.68;;;1.35;;
28862;SDS011;15994;51.796;13.006;2022-09-09T16:48:53;4.05;;;0.90;;
28862;SDS011;15994;51.796;13.006;2022-09-09T16:51:25;5.82;;;1.10;;
28862;SDS011;15994;51.796;13.006;2022-09-09T16:53:59;4.03;;;1.15;;
28862;SDS011;15994;51.796;13.006;2022-09-09T16:56:28;3.60;;;0.98;;
28862;SDS011;15994;51.796;13.006;2022-09-09T16:58:58;2.40;;;0.90;;
28862;SDS011;15994;51.796;13.006;2022-09-09T17:01:30;5.22;;;1.15;;
28862;SDS011;15994;51.796;13.006;2022-09-09T17:04:03;3.45;;;1.15;;
28862;SDS011;15994;51.796;13.006;2022-09-09T17:06:32;5.72;;;1.80;;
28862;SDS011;15994;51.796;13.006;2022-09-09T17:09:02;2.85;;;1.25;;